sensor_id;sensor_type;location;lat;lon;timestamp;temperature;humidity
57636;DHT22;43465;50.728;4.160;2023-04-29T00:00:40;12.60;99.90
57636;DHT22;43465;50.728;4.160;2023-04-29T00:03:08;12.60;99.90
57636;DHT22;43465;50.728;4.160;2023-04-29T00:05:34;12.70;99.90
57636;DHT22;43465;50.728;4.160;2023-04-29T00:08:00;12.70;99.90
57636;DHT22;43465;50.728;4.160;2023-04-29T00:10:26;12.70;99.90
57636;DHT22;43465;50.728;4.160;2023-04-29T00:12:52;12.70;99.90
57636;DHT22;43465;50.728;4.160;2023-04-29T00:15:17;12.60;99.90
57636;DHT22;43465;50.728;4.160;2023-04-29T00:17:43;12.60;99.90
57636;DHT22;43465;50.728;4.160;2023-04-29T00:20:10;12.60;99.90
57636;DHT22;43465;50.728;4.160;2023-04-29T00:22:37;12.60;99.90
57636;DHT22;43465;50.728;4.160;2023-04-29T00:25:03;12.60;99.90
57636;DHT22;43465;50.728;4.160;2023-04-29T00:27:29;12.60;99.90
57636;DHT22;43465;50.728;4.160;2023-04-29T00:29:55;12.40;99.90
57636;DHT22;43465;50.728;4.160;2023-04-29T00:32:21;12.30;99.90
57636;DHT22;43465;50.728;4.160;2023-04-29T00:34:47;12.30;99.90
57636;DHT22;43465;50.728;4.160;2023-04-29T00:37:14;12.30;99.90
57636;DHT22;43465;50.728;4.160;2023-04-29T00:39:39;12.30;99.90
57636;DHT22;43465;50.728;4.160;2023-04-29T00:42:05;12.30;99.90
57636;DHT22;43465;50.728;4.160;2023-04-29T00:44:31;12.40;99.90
57636;DHT22;43465;50.728;4.160;2023-04-29T00:46:56;12.40;99.90
57636;DHT22;43465;50.728;4.160;2023-04-29T00:49:23;12.40;99.90
57636;DHT22;43465;50.728;4.160;2023-04-29T00:51:49;12.40;99.90
57636;DHT22;43465;50.728;4.160;2023-04-29T00:54:15;12.30;99.90
57636;DHT22;43465;50.728;4.160;2023-04-29T00:56:44;12.30;99.90
57636;DHT22;43465;50.728;4.160;2023-04-29T00:59:11;12.30;99.90
57636;DHT22;43465;50.728;4.160;2023-04-29T01:01:37;12.30;99.90
57636;DHT22;43465;50.728;4.160;2023-04-29T01:04:04;12.20;99.90
57636;DHT22;43465;50.728;4.160;2023-04-29T01:06:56;12.20;99.90
57636;DHT22;43465;50.728;4.160;2023-04-29T01:17:55;12.10;99.90
57636;DHT22;43465;50.728;4.160;2023-04-29T01:20:25;12.10;99.90
57636;DHT22;43465;50.728;4.160;2023-04-29T01:22:51;12.10;99.90
57636;DHT22;43465;50.728;4.160;2023-04-29T01:25:17;12.20;99.90
57636;DHT22;43465;50.728;4.160;2023-04-29T01:35:43;12.20;99.90
57636;DHT22;43465;50.728;4.160;2023-04-29T01:38:29;12.20;99.90
57636;DHT22;43465;50.728;4.160;2023-04-29T01:41:11;12.10;99.90
57636;DHT22;43465;50.728;4.160;2023-04-29T01:43:37;12.00;99.90
57636;DHT22;43465;50.728;4.160;2023-04-29T01:46:08;12.00;99.90
57636;DHT22;43465;50.728;4.160;2023-04-29T01:48:36;12.00;99.90
57636;DHT22;43465;50.728;4.160;2023-04-29T01:51:02;11.90;99.90
57636;DHT22;43465;50.728;4.160;2023-04-29T01:53:28;12.00;99.90
57636;DHT22;43465;50.728;4.160;2023-04-29T01:55:53;11.90;99.90
57636;DHT22;43465;50.728;4.160;2023-04-29T01:58:19;11.90;99.90
57636;DHT22;43465;50.728;4.160;2023-04-29T02:00:45;11.90;99.90
57636;DHT22;43465;50.728;4.160;2023-04-29T02:03:10;11.80;99.90
57636;DHT22;43465;50.728;4.160;2023-04-29T02:05:36;11.80;99.90
57636;DHT22;43465;50.728;4.160;2023-04-29T02:08:02;11.80;99.90
57636;DHT22;43465;50.728;4.160;2023-04-29T02:10:28;11.70;99.90
57636;DHT22;43465;50.728;4.160;2023-04-29T02:12:54;11.70;99.90
57636;DHT22;43465;50.728;4.160;2023-04-29T02:15:20;11.70;99.90
57636;DHT22;43465;50.728;4.160;2023-04-29T02:17:46;11.70;99.90
57636;DHT22;43465;50.728;4.160;2023-04-29T02:20:12;11.80;99.90
57636;DHT22;43465;50.728;4.160;2023-04-29T02:22:37;11.70;99.90
57636;DHT22;43465;50.728;4.160;2023-04-29T02:25:03;11.70;99.90
57636;DHT22;43465;50.728;4.160;2023-04-29T02:27:30;11.60;99.90
57636;DHT22;43465;50.728;4.160;2023-04-29T02:29:56;11.50;99.90
57636;DHT22;43465;50.728;4.160;2023-04-29T02:32:22;11.50;99.90
57636;DHT22;43465;50.728;4.160;2023-04-29T02:34:47;11.50;99.90
57636;DHT22;43465;50.728;4.160;2023-04-29T02:37:13;11.40;99.90
57636;DHT22;43465;50.728;4.160;2023-04-29T02:39:40;11.40;99.90
57636;DHT22;43465;50.728;4.160;2023-04-29T02:42:06;11.40;99.90
57636;DHT22;43465;50.728;4.160;2023-04-29T02:44:32;11.30;99.90
57636;DHT22;43465;50.728;4.160;2023-04-29T02:46:57;11.30;99.90
57636;DHT22;43465;50.728;4.160;2023-04-29T02:49:23;11.30;99.90
57636;DHT22;43465;50.728;4.160;2023-04-29T02:51:49;11.30;99.90
57636;DHT22;43465;50.728;4.160;2023-04-29T02:54:15;11.20;99.90
57636;DHT22;43465;50.728;4.160;2023-04-29T02:56:42;11.20;99.90
57636;DHT22;43465;50.728;4.160;2023-04-29T02:59:08;11.20;99.90
57636;DHT22;43465;50.728;4.160;2023-04-29T03:01:34;11.30;99.90
57636;DHT22;43465;50.728;4.160;2023-04-29T03:04:00;11.30;99.90
57636;DHT22;43465;50.728;4.160;2023-04-29T03:06:26;11.30;99.90
57636;DHT22;43465;50.728;4.160;2023-04-29T03:08:52;11.30;99.90
57636;DHT22;43465;50.728;4.160;2023-04-29T03:11:19;11.40;99.90
57636;DHT22;43465;50.728;4.160;2023-04-29T03:13:44;11.40;99.90
57636;DHT22;43465;50.728;4.160;2023-04-29T03:16:10;11.30;99.90
57636;DHT22;43465;50.728;4.160;2023-04-29T03:18:38;11.30;99.90
57636;DHT22;43465;50.728;4.160;2023-04-29T03:21:04;11.30;99.90
57636;DHT22;43465;50.728;4.160;2023-04-29T03:23:30;11.30;99.90
57636;DHT22;43465;50.728;4.160;2023-04-29T03:25:55;11.30;99.90
57636;DHT22;43465;50.728;4.160;2023-04-29T03:28:21;11.30;99.90
57636;DHT22;43465;50.728;4.160;2023-04-29T03:30:46;11.20;99.90
57636;DHT22;43465;50.728;4.160;2023-04-29T03:33:12;11.20;99.90
57636;DHT22;43465;50.728;4.160;2023-04-29T03:35:38;11.20;99.90
57636;DHT22;43465;50.728;4.160;2023-04-29T03:38:04;11.20;99.90
57636;DHT22;43465;50.728;4.160;2023-04-29T03:40:30;11.20;99.90
57636;DHT22;43465;50.728;4.160;2023-04-29T03:42:55;11.30;99.90
57636;DHT22;43465;50.728;4.160;2023-04-29T03:45:21;11.30;99.90
57636;DHT22;43465;50.728;4.160;2023-04-29T03:47:46;11.20;99.90
57636;DHT22;43465;50.728;4.160;2023-04-29T03:50:12;11.20;99.90
57636;DHT22;43465;50.728;4.160;2023-04-29T03:52:38;11.20;99.90
57636;DHT22;43465;50.728;4.160;2023-04-29T03:55:04;11.20;99.90
57636;DHT22;43465;50.728;4.160;2023-04-29T03:57:30;11.30;99.90
57636;DHT22;43465;50.728;4.160;2023-04-29T03:59:55;11.30;99.90
57636;DHT22;43465;50.728;4.160;2023-04-29T04:02:21;11.30;99.90
57636;DHT22;43465;50.728;4.160;2023-04-29T04:04:46;11.20;99.90
57636;DHT22;43465;50.728;4.160;2023-04-29T04:07:12;11.20;99.90
57636;DHT22;43465;50.728;4.160;2023-04-29T04:09:38;11.10;99.90
57636;DHT22;43465;50.728;4.160;2023-04-29T04:12:04;11.20;99.90
57636;DHT22;43465;50.728;4.160;2023-04-29T04:14:30;11.20;99.90
57636;DHT22;43465;50.728;4.160;2023-04-29T04:16:56;11.20;99.90
57636;DHT22;43465;50.728;4.160;2023-04-29T04:19:22;11.30;99.90
57636;DHT22;43465;50.728;4.160;2023-04-29T04:21:47;11.30;99.90
57636;DHT22;43465;50.728;4.160;2023-04-29T04:24:13;11.30;99.90
57636;DHT22;43465;50.728;4.160;2023-04-29T04:26:38;11.40;99.90
57636;DHT22;43465;50.728;4.160;2023-04-29T04:29:05;11.40;99.90
57636;DHT22;43465;50.728;4.160;2023-04-29T04:31:31;11.40;99.90
57636;DHT22;43465;50.728;4.160;2023-04-29T04:33:57;11.40;99.90
57636;DHT22;43465;50.728;4.160;2023-04-29T04:36:24;11.40;99.90
57636;DHT22;43465;50.728;4.160;2023-04-29T04:38:50;11.40;99.90
57636;DHT22;43465;50.728;4.160;2023-04-29T04:41:16;11.40;99.90
57636;DHT22;43465;50.728;4.160;2023-04-29T04:43:42;11.30;99.90
57636;DHT22;43465;50.728;4.160;2023-04-29T04:46:11;11.30;99.90
57636;DHT22;43465;50.728;4.160;2023-04-29T04:48:37;11.40;99.90
57636;DHT22;43465;50.728;4.160;2023-04-29T04:51:10;11.40;99.90
57636;DHT22;43465;50.728;4.160;2023-04-29T04:53:36;11.40;99.90
57636;DHT22;43465;50.728;4.160;2023-04-29T04:56:02;11.50;99.90
57636;DHT22;43465;50.728;4.160;2023-04-29T04:58:29;11.40;99.90
57636;DHT22;43465;50.728;4.160;2023-04-29T05:00:56;11.40;99.90
57636;DHT22;43465;50.728;4.160;2023-04-29T05:03:21;11.40;99.90
57636;DHT22;43465;50.728;4.160;2023-04-29T05:05:58;11.40;99.90
57636;DHT22;43465;50.728;4.160;2023-04-29T05:08:24;11.40;99.90
57636;DHT22;43465;50.728;4.160;2023-04-29T05:10:50;11.50;99.90
57636;DHT22;43465;50.728;4.160;2023-04-29T05:13:16;11.40;99.90
57636;DHT22;43465;50.728;4.160;2023-04-29T05:15:43;11.50;99.90
57636;DHT22;43465;50.728;4.160;2023-04-29T05:18:09;11.50;99.90
57636;DHT22;43465;50.728;4.160;2023-04-29T05:20:35;11.40;99.90
57636;DHT22;43465;50.728;4.160;2023-04-29T05:23:01;11.40;99.90
57636;DHT22;43465;50.728;4.160;2023-04-29T05:25:27;11.50;99.90
57636;DHT22;43465;50.728;4.160;2023-04-29T05:27:53;11.60;99.90
57636;DHT22;43465;50.728;4.160;2023-04-29T05:30:19;11.50;99.90
57636;DHT22;43465;50.728;4.160;2023-04-29T05:32:44;11.50;99.90
57636;DHT22;43465;50.728;4.160;2023-04-29T05:35:10;11.40;99.90
57636;DHT22;43465;50.728;4.160;2023-04-29T05:37:36;11.40;99.90
57636;DHT22;43465;50.728;4.160;2023-04-29T05:40:03;11.20;99.90
57636;DHT22;43465;50.728;4.160;2023-04-29T05:42:29;11.20;99.90
57636;DHT22;43465;50.728;4.160;2023-04-29T05:44:54;11.30;99.90
57636;DHT22;43465;50.728;4.160;2023-04-29T05:47:20;11.30;99.90
57636;DHT22;43465;50.728;4.160;2023-04-29T05:49:47;11.30;99.90
57636;DHT22;43465;50.728;4.160;2023-04-29T05:52:12;11.30;99.90
57636;DHT22;43465;50.728;4.160;2023-04-29T05:54:38;11.40;99.90
57636;DHT22;43465;50.728;4.160;2023-04-29T05:57:04;11.40;99.90
57636;DHT22;43465;50.728;4.160;2023-04-29T05:59:30;11.40;99.90
57636;DHT22;43465;50.728;4.160;2023-04-29T06:01:56;11.30;99.90
57636;DHT22;43465;50.728;4.160;2023-04-29T06:04:22;11.30;99.90
57636;DHT22;43465;50.728;4.160;2023-04-29T06:06:52;11.30;99.90
57636;DHT22;43465;50.728;4.160;2023-04-29T06:09:19;11.30;99.90
57636;DHT22;43465;50.728;4.160;2023-04-29T06:11:48;11.30;99.90
57636;DHT22;43465;50.728;4.160;2023-04-29T06:14:14;11.30;99.90
57636;DHT22;43465;50.728;4.160;2023-04-29T06:16:39;11.20;99.90
57636;DHT22;43465;50.728;4.160;2023-04-29T06:19:05;11.30;99.90
57636;DHT22;43465;50.728;4.160;2023-04-29T06:21:31;11.30;99.90
57636;DHT22;43465;50.728;4.160;2023-04-29T06:23:57;11.30;99.90
57636;DHT22;43465;50.728;4.160;2023-04-29T06:26:23;11.30;99.90
57636;DHT22;43465;50.728;4.160;2023-04-29T06:28:49;11.20;99.90
57636;DHT22;43465;50.728;4.160;2023-04-29T06:31:15;11.20;99.90
57636;DHT22;43465;50.728;4.160;2023-04-29T06:33:40;11.20;99.90
57636;DHT22;43465;50.728;4.160;2023-04-29T06:36:06;11.20;99.90
57636;DHT22;43465;50.728;4.160;2023-04-29T06:38:32;11.10;99.90
57636;DHT22;43465;50.728;4.160;2023-04-29T06:40:58;11.10;99.90
57636;DHT22;43465;50.728;4.160;2023-04-29T06:43:28;11.10;99.90
57636;DHT22;43465;50.728;4.160;2023-04-29T06:45:54;11.10;99.90
57636;DHT22;43465;50.728;4.160;2023-04-29T06:48:21;11.00;99.90
57636;DHT22;43465;50.728;4.160;2023-04-29T06:50:53;11.10;99.90
57636;DHT22;43465;50.728;4.160;2023-04-29T06:53:20;11.00;99.90
57636;DHT22;43465;50.728;4.160;2023-04-29T06:55:46;11.10;99.90
57636;DHT22;43465;50.728;4.160;2023-04-29T06:58:12;11.10;99.90
57636;DHT22;43465;50.728;4.160;2023-04-29T07:00:39;11.10;99.90
57636;DHT22;43465;50.728;4.160;2023-04-29T07:03:05;11.10;99.90
57636;DHT22;43465;50.728;4.160;2023-04-29T07:05:31;11.10;99.90
57636;DHT22;43465;50.728;4.160;2023-04-29T07:07:57;10.90;99.90
57636;DHT22;43465;50.728;4.160;2023-04-29T07:10:22;10.90;99.90
57636;DHT22;43465;50.728;4.160;2023-04-29T07:12:48;10.90;99.90
57636;DHT22;43465;50.728;4.160;2023-04-29T07:15:14;10.90;99.90
57636;DHT22;43465;50.728;4.160;2023-04-29T07:17:39;10.80;99.90
57636;DHT22;43465;50.728;4.160;2023-04-29T07:20:05;10.80;99.90
57636;DHT22;43465;50.728;4.160;2023-04-29T07:22:32;10.80;99.90
57636;DHT22;43465;50.728;4.160;2023-04-29T07:24:57;10.80;99.90
57636;DHT22;43465;50.728;4.160;2023-04-29T07:27:23;10.80;99.90
57636;DHT22;43465;50.728;4.160;2023-04-29T07:29:49;10.80;99.90
57636;DHT22;43465;50.728;4.160;2023-04-29T07:32:15;10.90;99.90
57636;DHT22;43465;50.728;4.160;2023-04-29T07:34:41;10.90;99.90
57636;DHT22;43465;50.728;4.160;2023-04-29T07:37:07;10.80;99.90
57636;DHT22;43465;50.728;4.160;2023-04-29T07:39:33;10.70;99.90
57636;DHT22;43465;50.728;4.160;2023-04-29T07:41:59;10.80;99.90
57636;DHT22;43465;50.728;4.160;2023-04-29T07:44:27;10.90;99.90
57636;DHT22;43465;50.728;4.160;2023-04-29T07:46:53;10.90;99.90
57636;DHT22;43465;50.728;4.160;2023-04-29T07:49:19;11.00;99.90
57636;DHT22;43465;50.728;4.160;2023-04-29T07:51:44;11.00;99.90
57636;DHT22;43465;50.728;4.160;2023-04-29T07:54:10;11.00;99.90
57636;DHT22;43465;50.728;4.160;2023-04-29T07:56:36;11.10;99.90
57636;DHT22;43465;50.728;4.160;2023-04-29T07:59:01;11.20;99.90
57636;DHT22;43465;50.728;4.160;2023-04-29T08:01:28;11.30;99.90
57636;DHT22;43465;50.728;4.160;2023-04-29T08:03:54;11.40;99.90
57636;DHT22;43465;50.728;4.160;2023-04-29T08:06:19;11.40;99.90
57636;DHT22;43465;50.728;4.160;2023-04-29T08:08:47;11.40;99.90
57636;DHT22;43465;50.728;4.160;2023-04-29T08:11:17;11.40;99.90
57636;DHT22;43465;50.728;4.160;2023-04-29T08:13:43;11.40;99.90
57636;DHT22;43465;50.728;4.160;2023-04-29T08:16:09;11.50;99.90
57636;DHT22;43465;50.728;4.160;2023-04-29T08:18:35;11.50;99.90
57636;DHT22;43465;50.728;4.160;2023-04-29T08:21:01;11.30;99.90
57636;DHT22;43465;50.728;4.160;2023-04-29T08:23:27;11.40;99.90
57636;DHT22;43465;50.728;4.160;2023-04-29T08:25:53;11.40;99.90
57636;DHT22;43465;50.728;4.160;2023-04-29T08:28:23;11.30;99.90
57636;DHT22;43465;50.728;4.160;2023-04-29T08:30:49;11.40;99.90
57636;DHT22;43465;50.728;4.160;2023-04-29T08:33:15;11.50;99.90
57636;DHT22;43465;50.728;4.160;2023-04-29T08:35:41;11.50;99.90
57636;DHT22;43465;50.728;4.160;2023-04-29T08:38:08;11.60;99.90
57636;DHT22;43465;50.728;4.160;2023-04-29T08:40:44;11.60;99.90
57636;DHT22;43465;50.728;4.160;2023-04-29T08:43:12;11.70;99.90
57636;DHT22;43465;50.728;4.160;2023-04-29T08:45:38;11.70;99.90
57636;DHT22;43465;50.728;4.160;2023-04-29T08:48:06;11.60;99.90
57636;DHT22;43465;50.728;4.160;2023-04-29T08:50:39;11.80;99.90
57636;DHT22;43465;50.728;4.160;2023-04-29T08:53:14;11.90;99.90
57636;DHT22;43465;50.728;4.160;2023-04-29T08:55:42;12.00;99.90
57636;DHT22;43465;50.728;4.160;2023-04-29T08:58:09;12.10;99.90
57636;DHT22;43465;50.728;4.160;2023-04-29T09:00:35;12.10;99.90
57636;DHT22;43465;50.728;4.160;2023-04-29T09:03:21;12.10;99.90
57636;DHT22;43465;50.728;4.160;2023-04-29T09:05:52;12.10;99.90
57636;DHT22;43465;50.728;4.160;2023-04-29T09:08:22;12.30;99.90
57636;DHT22;43465;50.728;4.160;2023-04-29T09:10:50;12.40;99.90
57636;DHT22;43465;50.728;4.160;2023-04-29T09:13:27;12.40;99.90
57636;DHT22;43465;50.728;4.160;2023-04-29T09:15:54;12.50;99.90
57636;DHT22;43465;50.728;4.160;2023-04-29T09:18:41;12.60;99.90
57636;DHT22;43465;50.728;4.160;2023-04-29T09:21:18;12.70;99.90
57636;DHT22;43465;50.728;4.160;2023-04-29T09:23:45;12.70;99.90
57636;DHT22;43465;50.728;4.160;2023-04-29T09:26:12;12.80;99.90
57636;DHT22;43465;50.728;4.160;2023-04-29T09:28:38;12.90;99.90
57636;DHT22;43465;50.728;4.160;2023-04-29T09:31:12;12.80;99.90
57636;DHT22;43465;50.728;4.160;2023-04-29T09:33:56;12.80;99.90
57636;DHT22;43465;50.728;4.160;2023-04-29T09:36:44;12.80;99.90
57636;DHT22;43465;50.728;4.160;2023-04-29T09:39:20;12.70;99.90
57636;DHT22;43465;50.728;4.160;2023-04-29T09:44:26;12.90;99.90
57636;DHT22;43465;50.728;4.160;2023-04-29T09:46:57;13.00;99.90
57636;DHT22;43465;50.728;4.160;2023-04-29T09:49:33;13.00;99.90
57636;DHT22;43465;50.728;4.160;2023-04-29T09:52:08;12.90;99.90
57636;DHT22;43465;50.728;4.160;2023-04-29T09:54:35;12.90;99.90
57636;DHT22;43465;50.728;4.160;2023-04-29T09:57:03;13.00;99.90
57636;DHT22;43465;50.728;4.160;2023-04-29T09:59:30;13.10;99.90
57636;DHT22;43465;50.728;4.160;2023-04-29T10:01:57;13.20;99.90
57636;DHT22;43465;50.728;4.160;2023-04-29T10:04:25;13.30;99.90
57636;DHT22;43465;50.728;4.160;2023-04-29T10:06:52;13.30;99.90
57636;DHT22;43465;50.728;4.160;2023-04-29T10:09:19;13.40;99.90
57636;DHT22;43465;50.728;4.160;2023-04-29T10:11:49;13.30;99.90
57636;DHT22;43465;50.728;4.160;2023-04-29T10:14:18;13.30;99.90
57636;DHT22;43465;50.728;4.160;2023-04-29T10:17:02;13.40;99.90
57636;DHT22;43465;50.728;4.160;2023-04-29T10:20:04;13.50;99.90
57636;DHT22;43465;50.728;4.160;2023-04-29T10:22:48;13.70;99.90
57636;DHT22;43465;50.728;4.160;2023-04-29T10:25:16;13.70;99.90
57636;DHT22;43465;50.728;4.160;2023-04-29T10:27:44;13.70;99.90
57636;DHT22;43465;50.728;4.160;2023-04-29T10:30:14;13.70;99.90
57636;DHT22;43465;50.728;4.160;2023-04-29T10:32:41;13.80;99.90
57636;DHT22;43465;50.728;4.160;2023-04-29T10:35:12;13.80;99.90
57636;DHT22;43465;50.728;4.160;2023-04-29T10:37:44;13.90;99.90
57636;DHT22;43465;50.728;4.160;2023-04-29T10:40:41;14.10;99.90
57636;DHT22;43465;50.728;4.160;2023-04-29T10:43:08;14.10;99.90
57636;DHT22;43465;50.728;4.160;2023-04-29T10:45:34;14.10;99.90
57636;DHT22;43465;50.728;4.160;2023-04-29T10:53:14;14.40;99.90
57636;DHT22;43465;50.728;4.160;2023-04-29T10:55:41;14.60;99.90
57636;DHT22;43465;50.728;4.160;2023-04-29T10:58:34;14.80;99.90
57636;DHT22;43465;50.728;4.160;2023-04-29T11:01:00;15.00;99.90
57636;DHT22;43465;50.728;4.160;2023-04-29T11:06:13;15.40;99.90
57636;DHT22;43465;50.728;4.160;2023-04-29T11:08:39;15.50;99.90
57636;DHT22;43465;50.728;4.160;2023-04-29T11:11:06;15.70;99.90
57636;DHT22;43465;50.728;4.160;2023-04-29T11:13:39;15.80;99.90
57636;DHT22;43465;50.728;4.160;2023-04-29T11:16:09;15.80;99.90
57636;DHT22;43465;50.728;4.160;2023-04-29T11:19:08;15.80;99.90
57636;DHT22;43465;50.728;4.160;2023-04-29T11:21:37;15.60;99.90
57636;DHT22;43465;50.728;4.160;2023-04-29T11:24:06;15.60;99.90
57636;DHT22;43465;50.728;4.160;2023-04-29T11:26:34;15.60;99.90
57636;DHT22;43465;50.728;4.160;2023-04-29T11:29:00;15.60;99.90
57636;DHT22;43465;50.728;4.160;2023-04-29T11:31:35;15.50;99.90
57636;DHT22;43465;50.728;4.160;2023-04-29T11:34:03;15.50;99.90
57636;DHT22;43465;50.728;4.160;2023-04-29T11:36:31;15.40;99.90
57636;DHT22;43465;50.728;4.160;2023-04-29T11:39:00;15.40;99.90
57636;DHT22;43465;50.728;4.160;2023-04-29T11:41:26;15.40;99.90
57636;DHT22;43465;50.728;4.160;2023-04-29T11:43:56;15.30;99.90
57636;DHT22;43465;50.728;4.160;2023-04-29T11:46:25;15.20;99.90
57636;DHT22;43465;50.728;4.160;2023-04-29T11:48:56;15.20;99.90
57636;DHT22;43465;50.728;4.160;2023-04-29T11:51:24;15.30;99.90
57636;DHT22;43465;50.728;4.160;2023-04-29T11:53:50;15.30;99.90
57636;DHT22;43465;50.728;4.160;2023-04-29T11:56:16;15.40;99.90
57636;DHT22;43465;50.728;4.160;2023-04-29T11:58:45;15.50;99.90
57636;DHT22;43465;50.728;4.160;2023-04-29T12:01:11;15.60;99.90
57636;DHT22;43465;50.728;4.160;2023-04-29T12:03:36;15.60;99.90
57636;DHT22;43465;50.728;4.160;2023-04-29T12:06:02;15.80;99.90
57636;DHT22;43465;50.728;4.160;2023-04-29T12:08:28;15.80;99.90
57636;DHT22;43465;50.728;4.160;2023-04-29T12:10:58;16.00;99.90
57636;DHT22;43465;50.728;4.160;2023-04-29T12:13:28;15.90;99.90
57636;DHT22;43465;50.728;4.160;2023-04-29T12:15:55;15.90;99.90
57636;DHT22;43465;50.728;4.160;2023-04-29T12:18:21;15.70;99.90
57636;DHT22;43465;50.728;4.160;2023-04-29T12:20:48;15.60;99.90
57636;DHT22;43465;50.728;4.160;2023-04-29T12:23:27;15.40;99.90
57636;DHT22;43465;50.728;4.160;2023-04-29T12:25:58;15.50;99.90
57636;DHT22;43465;50.728;4.160;2023-04-29T12:28:25;15.50;99.90
57636;DHT22;43465;50.728;4.160;2023-04-29T12:30:51;15.40;99.90
57636;DHT22;43465;50.728;4.160;2023-04-29T12:33:28;15.40;99.90
57636;DHT22;43465;50.728;4.160;2023-04-29T12:35:55;15.40;99.90
57636;DHT22;43465;50.728;4.160;2023-04-29T12:40:47;15.60;99.90
57636;DHT22;43465;50.728;4.160;2023-04-29T12:43:14;15.70;99.90
57636;DHT22;43465;50.728;4.160;2023-04-29T12:45:39;16.00;99.90
57636;DHT22;43465;50.728;4.160;2023-04-29T12:48:05;16.10;99.90
57636;DHT22;43465;50.728;4.160;2023-04-29T12:50:34;16.20;99.90
57636;DHT22;43465;50.728;4.160;2023-04-29T12:53:02;16.30;99.90
57636;DHT22;43465;50.728;4.160;2023-04-29T12:55:30;16.40;99.90
57636;DHT22;43465;50.728;4.160;2023-04-29T12:57:56;16.50;99.90
57636;DHT22;43465;50.728;4.160;2023-04-29T13:00:21;16.50;99.90
57636;DHT22;43465;50.728;4.160;2023-04-29T13:02:47;16.50;99.90
57636;DHT22;43465;50.728;4.160;2023-04-29T13:05:13;16.60;99.90
57636;DHT22;43465;50.728;4.160;2023-04-29T13:07:38;16.60;99.90
57636;DHT22;43465;50.728;4.160;2023-04-29T13:10:05;16.60;99.90
57636;DHT22;43465;50.728;4.160;2023-04-29T13:12:32;16.60;99.90
57636;DHT22;43465;50.728;4.160;2023-04-29T13:14:57;16.50;99.90
57636;DHT22;43465;50.728;4.160;2023-04-29T13:17:23;16.40;99.90
57636;DHT22;43465;50.728;4.160;2023-04-29T13:19:49;16.30;99.90
57636;DHT22;43465;50.728;4.160;2023-04-29T13:22:15;16.30;99.90
57636;DHT22;43465;50.728;4.160;2023-04-29T13:24:41;16.30;99.90
57636;DHT22;43465;50.728;4.160;2023-04-29T13:27:06;16.20;99.90
57636;DHT22;43465;50.728;4.160;2023-04-29T13:29:32;16.40;99.90
57636;DHT22;43465;50.728;4.160;2023-04-29T13:31:58;16.60;99.90
57636;DHT22;43465;50.728;4.160;2023-04-29T13:34:23;16.50;99.90
57636;DHT22;43465;50.728;4.160;2023-04-29T13:36:49;16.60;99.90
57636;DHT22;43465;50.728;4.160;2023-04-29T13:39:15;16.80;99.90
57636;DHT22;43465;50.728;4.160;2023-04-29T13:41:41;16.80;99.90
57636;DHT22;43465;50.728;4.160;2023-04-29T13:44:07;16.90;99.90
57636;DHT22;43465;50.728;4.160;2023-04-29T13:46:33;17.00;99.90
57636;DHT22;43465;50.728;4.160;2023-04-29T13:48:58;17.10;99.90
57636;DHT22;43465;50.728;4.160;2023-04-29T13:51:24;17.10;99.90
57636;DHT22;43465;50.728;4.160;2023-04-29T13:53:50;16.90;99.90
57636;DHT22;43465;50.728;4.160;2023-04-29T13:56:16;16.90;99.90
57636;DHT22;43465;50.728;4.160;2023-04-29T13:58:41;16.90;99.90
57636;DHT22;43465;50.728;4.160;2023-04-29T14:01:07;16.70;99.90
57636;DHT22;43465;50.728;4.160;2023-04-29T14:03:33;16.60;99.90
57636;DHT22;43465;50.728;4.160;2023-04-29T14:05:59;16.60;99.90
57636;DHT22;43465;50.728;4.160;2023-04-29T14:08:25;16.60;99.90
57636;DHT22;43465;50.728;4.160;2023-04-29T14:10:51;16.50;99.90
57636;DHT22;43465;50.728;4.160;2023-04-29T14:13:16;16.30;99.90
57636;DHT22;43465;50.728;4.160;2023-04-29T14:15:42;16.30;99.90
57636;DHT22;43465;50.728;4.160;2023-04-29T14:18:08;16.30;99.90
57636;DHT22;43465;50.728;4.160;2023-04-29T14:20:35;16.30;99.90
57636;DHT22;43465;50.728;4.160;2023-04-29T14:23:00;16.40;99.90
57636;DHT22;43465;50.728;4.160;2023-04-29T14:25:26;16.50;99.90
57636;DHT22;43465;50.728;4.160;2023-04-29T14:27:52;16.60;99.90
57636;DHT22;43465;50.728;4.160;2023-04-29T14:30:18;16.60;99.90
57636;DHT22;43465;50.728;4.160;2023-04-29T14:32:43;16.60;99.90
57636;DHT22;43465;50.728;4.160;2023-04-29T14:35:10;16.80;99.90
57636;DHT22;43465;50.728;4.160;2023-04-29T14:37:36;16.90;99.90
57636;DHT22;43465;50.728;4.160;2023-04-29T14:40:02;17.00;99.90
57636;DHT22;43465;50.728;4.160;2023-04-29T14:42:28;17.00;99.90
57636;DHT22;43465;50.728;4.160;2023-04-29T14:44:54;17.00;99.90
57636;DHT22;43465;50.728;4.160;2023-04-29T14:47:20;17.10;99.90
57636;DHT22;43465;50.728;4.160;2023-04-29T14:49:46;17.00;99.90
57636;DHT22;43465;50.728;4.160;2023-04-29T14:52:11;16.90;99.90
57636;DHT22;43465;50.728;4.160;2023-04-29T14:54:37;16.90;99.90
57636;DHT22;43465;50.728;4.160;2023-04-29T14:57:03;16.90;99.90
57636;DHT22;43465;50.728;4.160;2023-04-29T14:59:28;17.10;99.90
57636;DHT22;43465;50.728;4.160;2023-04-29T15:01:55;17.30;99.90
57636;DHT22;43465;50.728;4.160;2023-04-29T15:04:21;17.40;99.90
57636;DHT22;43465;50.728;4.160;2023-04-29T15:06:47;17.70;99.90
57636;DHT22;43465;50.728;4.160;2023-04-29T15:09:13;18.00;99.90
57636;DHT22;43465;50.728;4.160;2023-04-29T15:11:39;18.40;99.90
57636;DHT22;43465;50.728;4.160;2023-04-29T15:14:04;18.60;99.90
57636;DHT22;43465;50.728;4.160;2023-04-29T15:16:31;18.70;99.90
57636;DHT22;43465;50.728;4.160;2023-04-29T15:18:56;18.60;99.90
57636;DHT22;43465;50.728;4.160;2023-04-29T15:21:22;18.70;99.90
57636;DHT22;43465;50.728;4.160;2023-04-29T15:23:48;18.80;99.90
57636;DHT22;43465;50.728;4.160;2023-04-29T15:26:14;18.70;99.90
57636;DHT22;43465;50.728;4.160;2023-04-29T15:28:39;18.60;99.90
57636;DHT22;43465;50.728;4.160;2023-04-29T15:31:05;18.40;99.90
57636;DHT22;43465;50.728;4.160;2023-04-29T15:33:31;18.70;99.90
57636;DHT22;43465;50.728;4.160;2023-04-29T15:35:57;19.40;99.90
57636;DHT22;43465;50.728;4.160;2023-04-29T15:38:23;20.10;99.90
57636;DHT22;43465;50.728;4.160;2023-04-29T15:40:48;20.40;99.90
57636;DHT22;43465;50.728;4.160;2023-04-29T15:43:14;20.30;99.90
57636;DHT22;43465;50.728;4.160;2023-04-29T15:45:40;20.00;99.90
57636;DHT22;43465;50.728;4.160;2023-04-29T15:48:06;20.10;99.90
57636;DHT22;43465;50.728;4.160;2023-04-29T15:50:32;20.10;99.90
57636;DHT22;43465;50.728;4.160;2023-04-29T15:52:58;20.20;99.90
57636;DHT22;43465;50.728;4.160;2023-04-29T15:55:24;20.00;99.90
57636;DHT22;43465;50.728;4.160;2023-04-29T15:57:50;19.90;99.80
57636;DHT22;43465;50.728;4.160;2023-04-29T16:00:16;19.80;99.60